Time;durP1;ratioP1;P1;durP2;ratioP2;P2;SDS_P1;SDS_P2;PMS_P1;PMS_P2;Temp;Humidity;BMP_temperature;BMP_pressure;BME280_temperature;BME280_humidity;BME280_pressure;Samples;Min_cycle;Max_cycle;Signal;HPM_P1;HPM_P2
2023/06/02 00:01:01;;;;;;;4.65;1.65;;;10.80;99.90;;;;;;5015034;28;20136;-65
2023/06/02 00:03:33;;;;;;;6.85;1.80;;;10.80;99.90;;;;;;5015045;28;20143;-65
2023/06/02 00:06:06;;;;;;;5.75;1.90;;;10.80;99.90;;;;;;5015500;28;20407;-65
2023/06/02 00:08:32;;;;;;;5.13;1.63;;;10.80;99.90;;;;;;5014914;28;20049;-65
2023/06/02 00:11:00;;;;;;;5.30;1.40;;;10.80;99.90;;;;;;5014450;28;20116;-65
2023/06/02 00:13:26;;;;;;;4.20;1.80;;;10.80;99.90;;;;;;5014795;28;20065;-65
2023/06/02 00:15:52;;;;;;;5.15;1.65;;;10.80;99.90;;;;;;5014769;28;20398;-65
2023/06/02 00:18:20;;;;;;;6.72;1.70;;;10.80;99.90;;;;;;5014772;28;20038;-65
2023/06/02 00:20:46;;;;;;;6.30;1.83;;;10.80;99.90;;;;;;5014689;28;20046;-65
2023/06/02 00:23:12;;;;;;;5.13;1.77;;;10.80;99.90;;;;;;5014360;28;20406;-65
2023/06/02 00:25:39;;;;;;;8.40;2.03;;;10.80;99.90;;;;;;5014576;28;20133;-65
2023/06/02 00:28:05;;;;;;;4.38;1.70;;;10.80;99.90;;;;;;5015263;28;20125;-65
2023/06/02 00:30:31;;;;;;;3.25;1.58;;;10.80;99.90;;;;;;5015255;28;20046;-65
2023/06/02 00:32:57;;;;;;;4.13;1.75;;;10.80;99.90;;;;;;5014966;28;20467;-65
2023/06/02 00:35:23;;;;;;;8.45;2.20;;;10.80;99.90;;;;;;5014008;28;20057;-65
2023/06/02 00:37:49;;;;;;;4.68;1.67;;;10.80;99.90;;;;;;5014482;28;20410;-64
2023/06/02 00:40:15;;;;;;;3.80;1.80;;;10.80;99.90;;;;;;5013243;28;20034;-64
2023/06/02 00:42:41;;;;;;;5.47;1.80;;;10.80;99.90;;;;;;5014339;28;20107;-65
2023/06/02 00:45:07;;;;;;;6.13;1.85;;;10.80;99.90;;;;;;5014149;28;20442;-65
2023/06/02 00:47:34;;;;;;;5.25;1.85;;;10.80;99.90;;;;;;5013966;28;20120;-65
2023/06/02 00:50:00;;;;;;;6.15;2.13;;;10.70;99.90;;;;;;5014703;28;20050;-65
2023/06/02 00:52:26;;;;;;;4.57;2.10;;;10.80;99.90;;;;;;5013868;28;20431;-65
2023/06/02 00:54:53;;;;;;;4.18;1.80;;;10.70;99.90;;;;;;5014136;28;20046;-65
2023/06/02 00:57:19;;;;;;;7.57;1.83;;;10.70;99.90;;;;;;5014030;28;20053;-65
2023/06/02 00:59:45;;;;;;;5.00;1.98;;;10.70;99.90;;;;;;5012626;28;20042;-65
2023/06/02 01:02:10;;;;;;;10.20;2.08;;;10.70;99.90;;;;;;5012877;28;20050;-65
2023/06/02 01:04:40;;;;;;;4.13;1.65;;;10.70;99.90;;;;;;5013970;28;20041;-65
2023/06/02 01:07:07;;;;;;;7.53;1.75;;;10.60;99.90;;;;;;5013968;28;20529;-65
2023/06/02 01:09:34;;;;;;;5.05;2.28;;;10.60;99.90;;;;;;5014422;28;20437;-65
2023/06/02 01:12:01;;;;;;;7.00;2.03;;;10.60;99.90;;;;;;5013932;28;20061;-65
2023/06/02 01:14:27;;;;;;;3.95;1.40;;;10.50;99.90;;;;;;5013984;28;20053;-65
2023/06/02 01:16:53;;;;;;;8.80;2.17;;;10.50;99.90;;;;;;5014411;28;20383;-65
2023/06/02 01:19:21;;;;;;;8.57;1.65;;;10.60;99.90;;;;;;5013844;28;20046;-65
2023/06/02 01:21:57;;;;;;;5.55;2.10;;;10.60;99.90;;;;;;5013830;28;20049;-65
2023/06/02 01:24:43;;;;;;;6.22;1.73;;;10.60;99.90;;;;;;5012404;28;20483;-65
2023/06/02 01:27:12;;;;;;;5.35;1.52;;;10.60;99.90;;;;;;5013815;28;20057;-64
2023/06/02 01:29:38;;;;;;;3.85;1.40;;;10.50;99.90;;;;;;5014259;28;20089;-65
2023/06/02 01:32:16;;;;;;;3.95;1.90;;;10.50;99.90;;;;;;5013054;28;20061;-65
2023/06/02 01:34:59;;;;;;;5.47;1.60;;;10.50;99.90;;;;;;5014040;28;20471;-65
2023/06/02 01:37:28;;;;;;;4.90;1.75;;;10.50;99.90;;;;;;5014274;28;20045;-65
2023/06/02 01:39:54;;;;;;;8.93;2.10;;;10.40;99.90;;;;;;5013694;28;20038;-65
2023/06/02 01:42:21;;;;;;;4.47;1.60;;;10.40;99.90;;;;;;5014141;28;20081;-65
2023/06/02 01:44:48;;;;;;;6.63;1.85;;;10.40;99.90;;;;;;5013358;28;20140;-65
2023/06/02 01:47:14;;;;;;;6.78;1.90;;;10.40;99.90;;;;;;5014395;28;20049;-65
2023/06/02 01:49:40;;;;;;;5.75;1.92;;;10.40;99.90;;;;;;5017444;28;20049;-65
2023/06/02 01:52:06;;;;;;;9.43;1.60;;;10.40;99.90;;;;;;5017639;28;20053;-65
2023/06/02 01:54:32;;;;;;;3.65;1.63;;;10.40;99.90;;;;;;5017362;28;20046;-65
2023/06/02 01:56:58;;;;;;;7.15;1.83;;;10.40;99.90;;;;;;5017309;28;20051;-65
2023/06/02 01:59:25;;;;;;;3.92;1.67;;;10.40;99.90;;;;;;5017822;28;20115;-65
2023/06/02 02:01:51;;;;;;;6.03;1.80;;;10.40;99.90;;;;;;5018090;28;20394;-64
2023/06/02 02:04:17;;;;;;;6.22;1.90;;;10.40;99.90;;;;;;5017274;28;20053;-65
2023/06/02 02:06:49;;;;;;;7.53;1.60;;;10.40;99.90;;;;;;5017273;28;20045;-65
2023/06/02 02:09:15;;;;;;;4.85;1.63;;;10.40;99.90;;;;;;5017148;28;20049;-65
2023/06/02 02:11:41;;;;;;;6.50;1.60;;;10.40;99.90;;;;;;5017609;28;20100;-65
2023/06/02 02:14:06;;;;;;;7.45;1.88;;;10.40;99.90;;;;;;5017215;28;20042;-65
2023/06/02 02:16:32;;;;;;;5.35;1.85;;;10.40;99.90;;;;;;5017014;28;20448;-65
2023/06/02 02:18:58;;;;;;;7.88;1.67;;;10.40;99.90;;;;;;5015770;28;20042;-65
2023/06/02 02:21:25;;;;;;;8.90;2.13;;;10.40;99.90;;;;;;5016902;28;20394;-65
2023/06/02 02:23:53;;;;;;;3.92;1.73;;;10.50;99.90;;;;;;5016886;28;20057;-65
2023/06/02 02:26:19;;;;;;;6.13;1.75;;;10.50;99.90;;;;;;5016813;28;20517;-65
2023/06/02 02:28:48;;;;;;;6.53;1.70;;;10.50;99.90;;;;;;5017242;28;20041;-65
2023/06/02 02:31:14;;;;;;;5.05;1.50;;;10.50;99.90;;;;;;5015483;28;20125;-65
2023/06/02 02:33:40;;;;;;;5.18;1.58;;;10.50;99.90;;;;;;5017541;28;20045;-65
2023/06/02 02:36:06;;;;;;;5.50;1.60;;;10.60;99.90;;;;;;5016771;28;20479;-65
2023/06/02 02:38:32;;;;;;;5.82;1.92;;;10.60;99.90;;;;;;5016569;28;20387;-65
2023/06/02 02:40:57;;;;;;;6.13;1.70;;;10.60;99.90;;;;;;5015388;28;20046;-65
2023/06/02 02:43:23;;;;;;;8.00;1.90;;;10.50;99.90;;;;;;5016528;28;20046;-65
2023/06/02 02:45:49;;;;;;;7.28;1.70;;;10.50;99.90;;;;;;5016407;28;20054;-65
2023/06/02 02:48:14;;;;;;;6.55;1.65;;;10.60;99.90;;;;;;5015470;28;20053;-65
2023/06/02 02:50:40;;;;;;;9.88;2.03;;;10.50;99.90;;;;;;5015566;28;20121;-65
2023/06/02 02:53:06;;;;;;;5.60;1.65;;;10.60;99.90;;;;;;5016591;28;20127;-65
2023/06/02 02:55:32;;;;;;;7.50;1.67;;;10.60;99.90;;;;;;5016358;28;20045;-65
2023/06/02 02:58:02;;;;;;;5.57;2.53;;;10.60;99.90;;;;;;5016436;28;20521;-65
2023/06/02 03:00:28;;;;;;;7.28;1.75;;;10.60;99.90;;;;;;5016078;28;20490;-65
2023/06/02 03:02:56;;;;;;;5.35;1.40;;;10.50;99.90;;;;;;5016185;28;20046;-65
2023/06/02 03:05:22;;;;;;;5.78;1.60;;;10.60;99.90;;;;;;5016698;28;20057;-65
2023/06/02 03:07:49;;;;;;;7.20;1.65;;;10.60;99.90;;;;;;5016094;28;20046;-65
2023/06/02 03:10:15;;;;;;;5.80;1.65;;;10.60;99.90;;;;;;5015329;28;20085;-65
2023/06/02 03:12:41;;;;;;;5.18;1.50;;;10.60;99.90;;;;;;5016006;28;20088;-65
2023/06/02 03:15:07;;;;;;;7.75;1.92;;;10.60;99.90;;;;;;5015955;28;20045;-65
2023/06/02 03:17:32;;;;;;;8.13;1.92;;;10.60;99.90;;;;;;5016445;28;20104;-65
2023/06/02 03:19:58;;;;;;;6.35;2.22;;;10.60;99.90;;;;;;5016382;28;20046;-65
2023/06/02 03:22:24;;;;;;;6.55;1.58;;;10.60;99.90;;;;;;5015834;28;20395;-65
2023/06/02 03:24:50;;;;;;;8.95;1.60;;;10.60;99.90;;;;;;5015566;28;20057;-65
2023/06/02 03:27:16;;;;;;;7.78;1.58;;;10.60;99.90;;;;;;5015561;28;20403;-65
2023/06/02 03:29:45;;;;;;;9.00;1.63;;;10.60;99.90;;;;;;5016088;28;20434;-65
2023/06/02 03:32:12;;;;;;;5.15;1.60;;;10.70;99.90;;;;;;5015852;28;20054;-65
2023/06/02 03:34:39;;;;;;;6.30;1.60;;;10.70;99.90;;;;;;5015433;28;20053;-65
2023/06/02 03:37:09;;;;;;;5.30;1.50;;;10.70;99.90;;;;;;5015421;28;20050;-65
2023/06/02 03:39:35;;;;;;;5.97;1.58;;;10.70;99.90;;;;;;5014859;28;20057;-65
2023/06/02 03:42:01;;;;;;;4.47;1.60;;;10.70;99.90;;;;;;5015024;28;20447;-65
2023/06/02 03:44:27;;;;;;;4.05;2.15;;;10.70;99.90;;;;;;5015675;28;20133;-65
2023/06/02 03:46:52;;;;;;;4.97;1.52;;;10.70;99.90;;;;;;5015818;28;20060;-65
2023/06/02 03:49:18;;;;;;;7.28;1.77;;;10.70;99.90;;;;;;5016078;28;20052;-65
2023/06/02 03:51:44;;;;;;;3.35;1.40;;;10.70;99.90;;;;;;5015624;28;20135;-66
2023/06/02 03:54:10;;;;;;;5.50;1.77;;;10.70;99.90;;;;;;5014504;28;20386;-65
2023/06/02 03:56:36;;;;;;;7.97;1.75;;;10.70;99.90;;;;;;5015441;28;20046;-65
2023/06/02 03:59:02;;;;;;;4.38;1.60;;;10.80;99.90;;;;;;5014974;28;20125;-66
2023/06/02 04:01:28;;;;;;;5.43;1.73;;;10.70;99.90;;;;;;5015621;28;20085;-66
2023/06/02 04:03:54;;;;;;;5.47;1.77;;;10.70;99.90;;;;;;5015022;28;20046;-66
2023/06/02 04:06:20;;;;;;;4.22;1.73;;;10.70;99.90;;;;;;5014987;28;20080;-66
2023/06/02 04:08:46;;;;;;;6.20;1.88;;;10.80;99.90;;;;;;5014952;28;20120;-66
2023/06/02 04:11:12;;;;;;;5.97;1.83;;;10.80;99.90;;;;;;5014649;28;20038;-66
2023/06/02 04:13:38;;;;;;;6.00;1.73;;;10.80;99.90;;;;;;5015144;28;20458;-65
2023/06/02 04:16:04;;;;;;;9.02;2.97;;;10.80;99.90;;;;;;5015344;28;20077;-66
2023/06/02 04:18:31;;;;;;;5.35;1.70;;;10.80;99.90;;;;;;5014421;28;20503;-66
2023/06/02 04:20:57;;;;;;;6.05;1.67;;;10.80;99.90;;;;;;5014747;28;20042;-65
2023/06/02 04:23:23;;;;;;;8.63;1.92;;;10.80;99.90;;;;;;5014692;28;20046;-66
2023/06/02 04:25:49;;;;;;;5.68;1.70;;;10.80;99.90;;;;;;5014687;28;20050;-65
2023/06/02 04:28:15;;;;;;;6.22;1.88;;;10.80;99.90;;;;;;5014492;28;20554;-66
2023/06/02 04:30:41;;;;;;;4.45;1.27;;;10.90;99.90;;;;;;5014500;28;20054;-65
2023/06/02 04:33:08;;;;;;;6.22;1.60;;;10.90;99.90;;;;;;5014519;28;20402;-65
2023/06/02 04:35:35;;;;;;;5.72;1.55;;;10.90;99.90;;;;;;5014443;28;20050;-65
2023/06/02 04:38:01;;;;;;;8.98;1.58;;;11.00;99.90;;;;;;5014345;28;20064;-65
2023/06/02 04:40:27;;;;;;;5.30;1.65;;;11.00;99.90;;;;;;5014488;28;20046;-66
2023/06/02 04:42:52;;;;;;;5.05;2.35;;;11.10;99.90;;;;;;5014399;28;20046;-66
2023/06/02 04:45:20;;;;;;;8.10;1.70;;;11.10;99.90;;;;;;5014209;28;20380;-65
2023/06/02 04:47:46;;;;;;;6.20;1.40;;;11.10;99.90;;;;;;5014314;28;20050;-66
2023/06/02 04:50:15;;;;;;;5.13;1.33;;;11.10;99.90;;;;;;5014205;28;20367;-65
2023/06/02 04:52:42;;;;;;;7.88;1.63;;;11.10;99.90;;;;;;5014487;28;20529;-65
2023/06/02 04:55:09;;;;;;;7.55;1.92;;;11.10;99.90;;;;;;5014755;28;20038;-66
2023/06/02 04:57:36;;;;;;;7.60;1.63;;;11.20;99.90;;;;;;5014144;28;20050;-65
2023/06/02 05:00:04;;;;;;;7.70;1.80;;;11.20;99.90;;;;;;5014950;28;20101;-65
2023/06/02 05:02:30;;;;;;;9.02;2.00;;;11.30;99.90;;;;;;5013719;28;20549;-66
2023/06/02 05:04:56;;;;;;;6.22;1.70;;;11.30;99.90;;;;;;5014096;28;20050;-65
2023/06/02 05:07:22;;;;;;;9.15;2.30;;;11.40;99.90;;;;;;5013984;28;20204;-65
2023/06/02 05:09:48;;;;;;;5.82;1.55;;;11.40;99.90;;;;;;5012739;28;20132;-65
2023/06/02 05:12:16;;;;;;;6.57;1.70;;;11.40;99.90;;;;;;5013000;28;20046;-65
2023/06/02 05:14:42;;;;;;;5.85;1.75;;;11.50;99.90;;;;;;5013868;28;20053;-66
2023/06/02 05:17:08;;;;;;;6.80;1.65;;;11.50;99.90;;;;;;5013231;28;20176;-65
2023/06/02 05:19:34;;;;;;;6.53;1.58;;;11.50;99.90;;;;;;5014208;28;20053;-65
2023/06/02 05:22:01;;;;;;;4.90;1.77;;;11.60;99.90;;;;;;5012793;28;20054;-65
2023/06/02 05:24:27;;;;;;;8.40;1.92;;;11.60;99.90;;;;;;5013427;28;20050;-65
2023/06/02 05:26:53;;;;;;;10.70;2.05;;;11.70;99.90;;;;;;5013732;28;20052;-65
2023/06/02 05:29:18;;;;;;;5.10;1.58;;;11.70;99.90;;;;;;5013787;28;20133;-65
2023/06/02 05:31:44;;;;;;;13.25;2.67;;;11.60;99.90;;;;;;5013629;28;20046;-65
2023/06/02 05:34:10;;;;;;;4.97;1.60;;;11.70;99.90;;;;;;5013971;28;20100;-65
2023/06/02 05:36:36;;;;;;;6.43;1.65;;;11.70;99.90;;;;;;5013703;28;20164;-65
2023/06/02 05:39:02;;;;;;;7.15;1.45;;;11.70;99.90;;;;;;5014452;28;20121;-65
2023/06/02 05:41:28;;;;;;;8.02;1.65;;;11.70;99.90;;;;;;5013976;28;20088;-65
2023/06/02 05:43:57;;;;;;;7.25;1.83;;;11.70;99.90;;;;;;5013679;28;20057;-65
2023/06/02 05:46:23;;;;;;;9.18;1.83;;;11.70;99.90;;;;;;5013767;28;20089;-65
2023/06/02 05:48:48;;;;;;;12.40;2.15;;;11.80;99.90;;;;;;5013576;28;20480;-65
2023/06/02 05:51:14;;;;;;;9.77;1.95;;;11.80;99.90;;;;;;5013966;28;20046;-66
2023/06/02 05:53:40;;;;;;;6.13;1.67;;;11.80;99.90;;;;;;5013641;28;20050;-65
2023/06/02 05:56:06;;;;;;;8.57;1.90;;;11.90;99.90;;;;;;5013456;28;20544;-65
2023/06/02 05:58:36;;;;;;;3.97;1.70;;;11.90;99.90;;;;;;5014002;28;20041;-66
2023/06/02 06:01:02;;;;;;;11.32;2.50;;;11.90;99.90;;;;;;5013959;28;20053;-65
2023/06/02 06:03:28;;;;;;;7.35;1.73;;;11.90;99.90;;;;;;5013477;28;20046;-65
2023/06/02 06:05:53;;;;;;;8.05;2.08;;;12.00;99.90;;;;;;5013163;28;20049;-65
2023/06/02 06:08:19;;;;;;;7.00;1.80;;;12.00;99.90;;;;;;5013991;28;20056;-65
2023/06/02 06:10:45;;;;;;;6.55;1.98;;;12.00;99.90;;;;;;5013369;28;20414;-67
2023/06/02 06:13:11;;;;;;;7.13;2.00;;;12.10;99.90;;;;;;5013877;28;20375;-62
2023/06/02 06:15:36;;;;;;;6.75;2.03;;;12.10;99.90;;;;;;5014070;28;20062;-61
2023/06/02 06:18:02;;;;;;;7.63;1.90;;;12.10;99.90;;;;;;5013599;28;20052;-62
2023/06/02 06:20:28;;;;;;;7.47;1.88;;;12.20;99.90;;;;;;5013537;28;20072;-61
2023/06/02 06:22:53;;;;;;;7.15;1.60;;;12.20;99.90;;;;;;5013342;28;20049;-61
2023/06/02 06:25:19;;;;;;;7.32;1.70;;;12.20;99.90;;;;;;5013245;28;20579;-61
2023/06/02 06:27:45;;;;;;;9.05;1.80;;;12.30;99.90;;;;;;5013419;28;20050;-61
2023/06/02 06:30:11;;;;;;;8.68;2.85;;;12.40;99.90;;;;;;5013075;28;20124;-62
2023/06/02 06:32:36;;;;;;;7.43;2.33;;;12.40;99.90;;;;;;5013166;28;20085;-61
2023/06/02 06:35:02;;;;;;;12.65;2.30;;;12.50;99.90;;;;;;5015664;28;20081;-61
2023/06/02 06:37:28;;;;;;;8.32;1.90;;;12.50;99.90;;;;;;5017042;28;20056;-61
2023/06/02 06:39:55;;;;;;;6.85;1.92;;;12.60;99.90;;;;;;5016566;28;20390;-61
2023/06/02 06:42:24;;;;;;;9.07;2.30;;;12.60;99.90;;;;;;5016795;28;20053;-61
2023/06/02 06:44:50;;;;;;;7.88;2.20;;;12.60;99.90;;;;;;5016045;28;20418;-61
2023/06/02 06:47:16;;;;;;;6.60;2.20;;;12.70;99.90;;;;;;5017040;28;20050;-61
2023/06/02 06:49:42;;;;;;;9.23;2.72;;;12.80;99.90;;;;;;5017075;28;20050;-61
2023/06/02 06:52:07;;;;;;;6.70;2.05;;;12.90;99.90;;;;;;5016449;28;20049;-61
2023/06/02 06:54:33;;;;;;;8.50;2.50;;;12.90;99.90;;;;;;5016826;28;20045;-61
2023/06/02 06:56:59;;;;;;;5.55;2.00;;;12.90;99.90;;;;;;5015115;28;20053;-61
2023/06/02 06:59:25;;;;;;;7.65;2.67;;;13.00;99.90;;;;;;5016104;28;20054;-62
2023/06/02 07:01:50;;;;;;;7.55;2.22;;;13.10;99.90;;;;;;5016160;28;20493;-62
2023/06/02 07:04:17;;;;;;;6.25;2.42;;;13.20;99.90;;;;;;5015899;28;20213;-62
2023/06/02 07:06:43;;;;;;;10.40;2.55;;;13.20;99.90;;;;;;5015801;28;20380;-62
2023/06/02 07:09:10;;;;;;;7.43;2.42;;;13.30;99.90;;;;;;5016045;28;20104;-61
2023/06/02 07:11:36;;;;;;;7.28;2.60;;;13.40;99.90;;;;;;5015948;28;20038;-61
2023/06/02 07:14:02;;;;;;;9.05;2.92;;;13.40;99.90;;;;;;5014751;28;20367;-62
2023/06/02 07:16:28;;;;;;;8.90;2.55;;;13.40;99.90;;;;;;5015781;28;20045;-63
2023/06/02 07:18:53;;;;;;;7.45;2.38;;;13.50;99.90;;;;;;5015737;28;20046;-62
2023/06/02 07:21:19;;;;;;;9.32;2.58;;;13.50;99.90;;;;;;5015767;28;20046;-63
2023/06/02 07:23:45;;;;;;;11.18;3.03;;;13.50;99.90;;;;;;5015708;28;20175;-63
2023/06/02 07:26:11;;;;;;;8.88;2.95;;;13.50;99.90;;;;;;5015420;28;20065;-63
2023/06/02 07:28:38;;;;;;;8.52;2.60;;;13.60;99.90;;;;;;5015628;28;20096;-63
2023/06/02 07:31:04;;;;;;;7.45;2.50;;;13.60;99.90;;;;;;5015959;28;20042;-62
2023/06/02 07:33:30;;;;;;;11.20;2.80;;;13.70;99.90;;;;;;5016073;28;20057;-65
2023/06/02 07:35:55;;;;;;;6.47;2.40;;;13.70;99.90;;;;;;5014311;28;20045;-63
2023/06/02 07:38:21;;;;;;;11.05;2.72;;;13.80;99.90;;;;;;5015992;28;20107;-63
2023/06/02 07:40:47;;;;;;;9.38;2.95;;;13.90;99.90;;;;;;5014867;28;20445;-62
2023/06/02 07:43:12;;;;;;;7.10;2.78;;;13.90;99.90;;;;;;5015864;28;20049;-63
2023/06/02 07:45:38;;;;;;;7.20;2.65;;;14.00;99.90;;;;;;5014062;28;20058;-62
2023/06/02 07:48:04;;;;;;;8.90;3.17;;;14.10;99.90;;;;;;5016147;28;20056;-63
2023/06/02 07:50:30;;;;;;;9.88;2.92;;;14.20;99.90;;;;;;5014013;28;20050;-63
2023/06/02 07:52:55;;;;;;;12.65;3.80;;;14.40;99.90;;;;;;5015422;28;20050;-63
2023/06/02 07:55:21;;;;;;;11.65;3.25;;;14.50;99.90;;;;;;5015422;28;20132;-62
2023/06/02 07:57:47;;;;;;;7.93;3.00;;;14.60;99.90;;;;;;5015029;28;20072;-62
2023/06/02 08:00:17;;;;;;;7.30;3.03;;;14.80;99.90;;;;;;5014629;28;20038;-63
2023/06/02 08:02:46;;;;;;;7.90;2.63;;;14.90;99.90;;;;;;5015733;28;20046;-63
2023/06/02 08:05:12;;;;;;;10.73;3.10;;;15.10;99.90;;;;;;5015769;28;20057;-62
2023/06/02 08:07:39;;;;;;;8.30;3.53;;;15.20;99.90;;;;;;5014604;28;20483;-62
2023/06/02 08:10:06;;;;;;;7.93;3.00;;;15.50;99.90;;;;;;5014796;28;20545;-64
2023/06/02 08:12:32;;;;;;;6.32;2.97;;;15.70;99.90;;;;;;5014562;28;20376;-62
2023/06/02 08:14:58;;;;;;;9.25;3.25;;;15.90;99.90;;;;;;5015301;28;20057;-62
2023/06/02 08:17:29;;;;;;;12.10;3.53;;;16.00;99.90;;;;;;5015038;28;20053;-62
2023/06/02 08:19:59;;;;;;;9.43;3.20;;;16.00;99.90;;;;;;5014977;28;20497;-62
2023/06/02 08:22:27;;;;;;;6.47;3.15;;;16.20;99.90;;;;;;5015238;28;20052;-62
2023/06/02 08:24:56;;;;;;;10.55;3.00;;;16.30;99.90;;;;;;5013277;28;20111;-65
2023/06/02 08:27:23;;;;;;;8.27;3.30;;;16.30;99.90;;;;;;5014541;28;20129;-65
2023/06/02 08:29:49;;;;;;;7.22;2.90;;;16.50;99.90;;;;;;5014426;28;20053;-62
2023/06/02 08:32:19;;;;;;;10.65;3.10;;;16.70;99.90;;;;;;5014477;28;20091;-62
2023/06/02 08:34:47;;;;;;;7.03;3.03;;;16.90;99.90;;;;;;5014477;28;20077;-62
2023/06/02 08:37:17;;;;;;;10.80;3.00;;;17.20;99.90;;;;;;5014434;28;20050;-62
2023/06/02 08:39:47;;;;;;;7.57;3.17;;;17.50;99.90;;;;;;5014442;28;20088;-63
2023/06/02 08:42:15;;;;;;;10.27;2.53;;;17.70;99.90;;;;;;5014709;28;20143;-63
2023/06/02 08:44:42;;;;;;;6.53;2.50;;;17.70;99.90;;;;;;5014278;28;20041;-62
2023/06/02 08:47:10;;;;;;;8.77;2.45;;;17.70;99.90;;;;;;5014269;28;20056;-63
2023/06/02 08:49:38;;;;;;;9.48;3.10;;;17.70;99.90;;;;;;5014259;28;20049;-63
2023/06/02 08:52:09;;;;;;;7.82;2.47;;;17.90;99.90;;;;;;5014110;28;20046;-63
2023/06/02 08:54:35;;;;;;;6.90;2.38;;;18.10;99.90;;;;;;5014760;28;20378;-63
2023/06/02 08:57:04;;;;;;;10.68;2.67;;;18.30;99.90;;;;;;5013691;28;20089;-62
2023/06/02 08:59:30;;;;;;;8.38;2.63;;;18.60;99.90;;;;;;5013990;28;20045;-62
2023/06/02 09:01:56;;;;;;;9.32;2.28;;;18.70;99.90;;;;;;5013845;28;20045;-62
2023/06/02 09:04:21;;;;;;;8.98;2.33;;;18.60;99.90;;;;;;5013996;28;20475;-63
2023/06/02 09:06:50;;;;;;;5.63;1.92;;;18.70;99.90;;;;;;5013989;28;20049;-62
2023/06/02 09:09:16;;;;;;;5.78;1.70;;;18.80;99.90;;;;;;5013916;28;20072;-62
2023/06/02 09:11:59;;;;;;;5.63;1.90;;;18.90;99.90;;;;;;5013829;28;20042;-62
2023/06/02 09:14:25;;;;;;;7.25;2.03;;;19.00;99.90;;;;;;5014127;28;20093;-62
2023/06/02 09:16:50;;;;;;;5.85;2.20;;;19.10;99.90;;;;;;5013804;28;20045;-63
2023/06/02 09:19:16;;;;;;;7.65;2.25;;;19.30;99.90;;;;;;5013781;28;20046;-64
2023/06/02 09:21:42;;;;;;;5.57;2.03;;;19.40;99.90;;;;;;5014134;28;20176;-62
2023/06/02 09:24:07;;;;;;;6.32;1.88;;;19.40;99.90;;;;;;5014035;28;20376;-62
2023/06/02 09:26:34;;;;;;;7.05;2.42;;;19.50;99.90;;;;;;5013674;28;20465;-62
2023/06/02 09:29:09;;;;;;;5.60;2.10;;;19.70;99.90;;;;;;5013592;28;20065;-62
2023/06/02 09:31:52;;;;;;;3.83;1.90;;;19.90;99.90;;;;;;5014356;28;20073;-62
2023/06/02 09:34:19;;;;;;;5.93;1.63;;;20.10;99.90;;;;;;5012243;28;20483;-62
2023/06/02 09:36:51;;;;;;;6.20;2.22;;;20.30;99.90;;;;;;5013517;28;20403;-62
2023/06/02 09:39:33;;;;;;;5.28;1.92;;;20.20;99.90;;;;;;5013482;28;20054;-63
2023/06/02 09:42:00;;;;;;;4.97;1.60;;;20.20;99.90;;;;;;5013498;28;20054;-62
2023/06/02 09:44:26;;;;;;;3.53;1.55;;;20.40;99.90;;;;;;5013562;28;20046;-62
2023/06/02 09:46:53;;;;;;;7.95;1.85;;;20.70;99.90;;;;;;5014736;28;20049;-62
2023/06/02 09:49:18;;;;;;;6.53;2.20;;;20.90;99.90;;;;;;5013429;28;20046;-62
2023/06/02 09:51:45;;;;;;;6.88;1.88;;;20.80;99.90;;;;;;5013383;28;20041;-62
2023/06/02 09:54:11;;;;;;;3.55;1.83;;;20.60;99.90;;;;;;5013483;28;20041;-62
2023/06/02 09:56:38;;;;;;;5.97;1.80;;;20.60;99.90;;;;;;5013272;28;20056;-62
2023/06/02 09:59:08;;;;;;;4.03;1.70;;;20.80;99.90;;;;;;5012337;28;20129;-62
2023/06/02 10:01:35;;;;;;;5.60;1.52;;;21.10;99.90;;;;;;5014179;28;20073;-62
2023/06/02 10:04:03;;;;;;;6.82;2.13;;;21.40;99.90;;;;;;5013409;28;20041;-61
2023/06/02 10:06:47;;;;;;;6.72;2.17;;;21.20;99.90;;;;;;5013634;28;20123;-62
2023/06/02 10:09:30;;;;;;;7.22;2.28;;;20.60;99.90;;;;;;5015727;28;20042;-62
2023/06/02 10:12:10;;;;;;;5.15;1.63;;;20.10;99.90;;;;;;5017104;28;20042;-61
2023/06/02 10:15:04;;;;;;;6.85;1.73;;;19.80;99.90;;;;;;5017103;28;20052;-62
2023/06/02 10:17:39;;;;;;;5.95;2.10;;;19.90;99.90;;;;;;5017085;28;20050;-62
2023/06/02 10:20:38;;;;;;;4.82;1.90;;;20.00;99.90;;;;;;5016961;28;20092;-63
2023/06/02 10:23:09;;;;;;;5.38;1.60;;;19.90;99.90;;;;;;5017752;28;20049;-63
2023/06/02 10:26:19;;;;;;;5.40;1.92;;;19.90;99.90;;;;;;5016841;28;20054;-62
2023/06/02 10:28:46;;;;;;;5.15;1.83;;;19.80;99.90;;;;;;5016780;28;20054;-62
2023/06/02 10:31:12;;;;;;;4.78;1.90;;;20.20;99.90;;;;;;5016593;28;20081;-63
2023/06/02 10:33:45;;;;;;;5.50;2.00;;;20.80;99.90;;;;;;5016641;28;20061;-63
2023/06/02 10:36:17;;;;;;;5.38;1.88;;;21.30;99.90;;;;;;5016309;28;20498;-63
2023/06/02 10:38:44;;;;;;;5.22;1.40;;;21.40;99.90;;;;;;5016874;28;20053;-63
2023/06/02 10:41:10;;;;;;;3.95;1.50;;;21.30;99.90;;;;;;5016562;28;20463;-62
2023/06/02 10:43:36;;;;;;;4.22;1.63;;;21.30;99.90;;;;;;5016750;28;20525;-62
2023/06/02 10:46:18;;;;;;;6.10;1.30;;;21.70;99.90;;;;;;4998897;28;20058;-62
2023/06/02 10:48:44;;;;;;;5.03;1.25;;;21.70;99.90;;;;;;5016376;28;20052;-62
2023/06/02 10:51:12;;;;;;;3.58;1.10;;;21.40;99.90;;;;;;5016304;28;20124;-61
2023/06/02 10:54:01;;;;;;;2.65;1.23;;;21.00;99.90;;;;;;5016310;28;20050;-62
2023/06/02 10:56:40;;;;;;;4.22;1.10;;;20.70;99.90;;;;;;5016276;28;20057;-62
2023/06/02 10:59:06;;;;;;;3.28;1.15;;;20.30;99.90;;;;;;5016715;28;20045;-62
2023/06/02 11:01:51;;;;;;;4.50;1.30;;;20.10;99.90;;;;;;5016177;28;20046;-62
2023/06/02 11:04:34;;;;;;;3.55;1.20;;;20.40;99.90;;;;;;5016103;28;20046;-62
2023/06/02 11:07:26;;;;;;;4.60;1.30;;;21.30;99.90;;;;;;5015983;28;20495;-63
2023/06/02 11:10:03;;;;;;;2.63;1.10;;;22.20;99.90;;;;;;5015982;28;20046;-63
2023/06/02 11:12:50;;;;;;;2.25;0.95;;;22.90;99.90;;;;;;5015974;28;20057;-62
2023/06/02 11:15:17;;;;;;;2.35;1.08;;;23.60;99.90;;;;;;5016192;28;20107;-62
2023/06/02 11:17:47;;;;;;;3.05;0.95;;;23.90;99.90;;;;;;5015914;28;20088;-63
2023/06/02 11:20:13;;;;;;;3.55;1.00;;;23.60;99.90;;;;;;5015460;28;20129;-63
2023/06/02 11:22:39;;;;;;;3.97;1.00;;;23.10;99.90;;;;;;4998150;28;20516;-63
2023/06/02 11:25:05;;;;;;;2.65;1.10;;;22.50;99.90;;;;;;5015620;28;20131;-62
2023/06/02 11:27:57;;;;;;;3.38;1.10;;;22.00;99.90;;;;;;5015603;28;20376;-62
2023/06/02 11:30:24;;;;;;;2.25;1.10;;;21.40;99.90;;;;;;5015287;28;20524;-62
2023/06/02 11:32:51;;;;;;;3.42;1.20;;;21.20;99.90;;;;;;5015575;28;20099;-62
2023/06/02 11:35:25;;;;;;;2.08;1.00;;;21.10;99.90;;;;;;5014455;28;20053;-62
2023/06/02 11:38:07;;;;;;;2.72;1.00;;;21.20;99.90;;;;;;5015791;28;20474;-62
2023/06/02 11:40:37;;;;;;;5.28;1.00;;;21.60;99.90;;;;;;5015567;28;20057;-62
2023/06/02 11:43:03;;;;;;;2.47;0.90;;;21.60;99.90;;;;;;5015722;28;20049;-63
2023/06/02 11:45:29;;;;;;;2.70;0.98;;;21.60;99.90;;;;;;5014875;28;20531;-62
2023/06/02 11:48:05;;;;;;;2.25;1.00;;;21.90;99.90;;;;;;5015351;28;20061;-63
2023/06/02 11:50:31;;;;;;;3.10;1.25;;;22.40;99.90;;;;;;5015603;28;20045;-62
2023/06/02 11:52:57;;;;;;;2.55;1.00;;;22.90;99.90;;;;;;5016046;28;20433;-63
2023/06/02 11:55:31;;;;;;;2.63;1.10;;;23.20;99.90;;;;;;5015242;28;20050;-62
2023/06/02 11:58:20;;;;;;;2.67;0.95;;;23.40;99.90;;;;;;5015718;28;20053;-62
2023/06/02 12:00:46;;;;;;;1.77;1.00;;;23.60;99.90;;;;;;5015089;28;20355;-62
2023/06/02 12:03:12;;;;;;;2.92;1.17;;;23.60;99.90;;;;;;5014967;28;20482;-63
2023/06/02 12:05:43;;;;;;;3.13;0.98;;;23.90;99.90;;;;;;5014888;28;20104;-62
2023/06/02 12:08:22;;;;;;;1.75;0.90;;;23.80;99.90;;;;;;5014994;28;20069;-63
2023/06/02 12:10:48;;;;;;;2.65;1.10;;;24.00;99.90;;;;;;5014860;28;20045;-62
2023/06/02 12:13:28;;;;;;;3.33;1.13;;;24.10;99.90;;;;;;5014835;28;20081;-63
2023/06/02 12:15:55;;;;;;;1.67;0.80;;;24.30;99.90;;;;;;5014847;28;20048;-63
2023/06/02 12:18:31;;;;;;;3.45;0.93;;;24.60;99.90;;;;;;5015118;28;20092;-63
2023/06/02 12:20:58;;;;;;;1.73;0.85;;;25.10;99.90;;;;;;5014791;28;20045;-63
2023/06/02 12:23:23;;;;;;;3.08;0.90;;;25.20;99.90;;;;;;5014951;28;20038;-63
2023/06/02 12:25:59;;;;;;;2.75;0.93;;;25.20;99.90;;;;;;5013486;28;20502;-63
2023/06/02 12:28:25;;;;;;;3.38;1.00;;;25.10;99.90;;;;;;5014549;28;20058;-63
2023/06/02 12:30:51;;;;;;;2.97;0.80;;;24.90;99.90;;;;;;5012780;28;20348;-63
2023/06/02 12:33:17;;;;;;;2.38;0.90;;;24.90;99.90;;;;;;5013967;28;20053;-64
2023/06/02 12:35:43;;;;;;;1.70;0.70;;;24.70;99.90;;;;;;5014703;28;20046;-64
2023/06/02 12:38:09;;;;;;;1.90;0.77;;;24.70;99.90;;;;;;5014432;28;20054;-64
2023/06/02 12:40:39;;;;;;;2.35;0.90;;;24.80;99.90;;;;;;5014672;28;20046;-63
2023/06/02 12:43:05;;;;;;;1.90;0.88;;;25.00;99.90;;;;;;5014609;28;20057;-63
2023/06/02 12:45:32;;;;;;;2.60;1.23;;;25.30;99.90;;;;;;5013986;28;20053;-63
2023/06/02 12:47:58;;;;;;;1.98;0.80;;;25.40;99.90;;;;;;5013708;28;20589;-64
2023/06/02 12:50:25;;;;;;;4.07;1.00;;;25.80;99.90;;;;;;5014147;28;20041;-64